createdAt,value
2019-04-27T00:06:13.473Z,11.55
2019-04-27T00:08:49.663Z,11.55
2019-04-27T00:11:23.461Z,11.55
2019-04-27T00:13:54.444Z,11.59
2019-04-27T00:16:47.152Z,11.60
2019-04-27T00:19:35.544Z,11.33
2019-04-27T00:22:14.759Z,11.27
2019-04-27T00:24:46.047Z,11.06
2019-04-27T00:27:17.004Z,11.22
2019-04-27T00:29:48.831Z,11.26
2019-04-27T00:32:19.905Z,11.38
2019-04-27T00:34:53.158Z,11.16
2019-04-27T00:37:44.967Z,11.45
2019-04-27T00:40:20.393Z,11.35
2019-04-27T00:42:54.028Z,11.46
2019-04-27T00:45:24.857Z,11.60
2019-04-27T00:47:59.677Z,11.24
2019-04-27T00:50:29.234Z,11.43
2019-04-27T00:53:00.055Z,11.46
2019-04-27T00:55:33.308Z,11.31
2019-04-27T00:58:32.927Z,11.26
2019-04-27T01:01:24.087Z,11.33
2019-04-27T01:03:58.874Z,11.16
2019-04-27T01:06:30.212Z,11.12
2019-04-27T01:09:03.362Z,11.03
2019-04-27T01:11:36.075Z,10.88
2019-04-27T01:14:07.329Z,11.08
2019-04-27T01:16:39.213Z,10.96
2019-04-27T01:19:10.541Z,10.76
2019-04-27T01:21:42.215Z,11.05
2019-04-27T01:24:13.473Z,11.10
2019-04-27T01:26:59.992Z,10.87
2019-04-27T01:29:31.674Z,11.20
2019-04-27T01:32:03.511Z,11.39
2019-04-27T01:34:34.765Z,11.22
2019-04-27T01:37:05.849Z,11.42
2019-04-27T01:39:38.674Z,11.34
2019-04-27T01:42:10.612Z,11.40
2019-04-27T01:44:42.504Z,11.42
2019-04-27T01:47:13.490Z,11.33
2019-04-27T01:49:44.792Z,11.18
2019-04-27T01:52:15.874Z,11.36
2019-04-27T01:54:47.274Z,11.03
2019-04-27T01:57:19.412Z,10.98
2019-04-27T01:59:51.146Z,10.96
2019-04-27T02:02:29.696Z,11.07
2019-04-27T02:05:20.038Z,10.94
2019-04-27T02:07:51.329Z,10.88
2019-04-27T02:10:22.408Z,10.85
2019-04-27T02:12:53.439Z,11.06
2019-04-27T02:15:24.612Z,11.18
2019-04-27T02:17:55.650Z,10.77
2019-04-27T02:20:28.285Z,10.89
2019-04-27T02:22:59.569Z,10.96
2019-04-27T02:25:30.645Z,10.74
2019-04-27T02:28:09.313Z,10.54
2019-04-27T02:30:58.345Z,10.83
2019-04-27T02:33:40.196Z,10.71
2019-04-27T02:36:14.813Z,10.61
2019-04-27T02:38:43.852Z,10.42
2019-04-27T02:41:14.912Z,10.48
2019-04-27T02:44:10.983Z,10.50
2019-04-27T02:46:42.838Z,10.33
2019-04-27T02:49:14.005Z,10.62
2019-04-27T02:52:20.050Z,10.28
2019-04-27T02:54:51.425Z,10.25
2019-04-27T02:57:22.543Z,10.27
2019-04-27T02:59:53.599Z,10.44
2019-04-27T03:02:30.272Z,10.27
2019-04-27T03:05:01.398Z,10.30
2019-04-27T03:07:32.493Z,10.18
2019-04-27T03:10:03.576Z,10.25
2019-04-27T03:12:42.410Z,10.38
2019-04-27T03:15:32.854Z,10.55
2019-04-27T03:18:10.115Z,10.14
2019-04-27T03:21:00.298Z,10.31
2019-04-27T03:23:32.064Z,10.27
2019-04-27T03:26:30.987Z,10.22
2019-04-27T03:29:01.203Z,10.46
2019-04-27T03:31:33.253Z,10.58
2019-04-27T03:34:05.955Z,10.33
2019-04-27T03:36:39.559Z,10.32
2019-04-27T03:39:10.437Z,10.37
2019-04-27T03:41:41.903Z,10.28
2019-04-27T03:44:13.211Z,10.28
2019-04-27T03:46:44.256Z,10.32
2019-04-27T03:49:31.781Z,10.19
2019-04-27T03:51:54.721Z,10.51
2019-04-27T03:54:32.298Z,10.60
2019-04-27T03:57:09.925Z,10.47
2019-04-27T04:00:01.013Z,10.41
2019-04-27T04:02:32.333Z,10.47
2019-04-27T04:05:03.509Z,10.38
2019-04-27T04:07:34.596Z,10.53
2019-04-27T04:10:05.946Z,10.57
2019-04-27T04:12:44.259Z,10.67
2019-04-27T04:15:33.297Z,10.64
2019-04-27T04:18:04.522Z,10.70
2019-04-27T04:20:35.769Z,10.46
2019-04-27T04:23:06.736Z,10.39
2019-04-27T04:25:40.882Z,10.45
2019-04-27T04:28:11.490Z,10.45
2019-04-27T04:30:43.075Z,10.46
2019-04-27T04:33:14.167Z,10.36
2019-04-27T04:35:45.157Z,10.43
2019-04-27T04:38:20.330Z,10.65
2019-04-27T04:40:59.112Z,10.53
2019-04-27T04:43:40.175Z,10.29
2019-04-27T04:46:29.868Z,9.99
2019-04-27T04:49:01.302Z,10.05
2019-04-27T04:51:32.747Z,10.25
2019-04-27T04:54:04.065Z,10.32
2019-04-27T04:56:35.821Z,10.43
2019-04-27T04:59:06.889Z,10.49
2019-04-27T05:01:39.910Z,10.62
2019-04-27T05:04:11.273Z,10.75
2019-04-27T05:06:42.880Z,10.82
2019-04-27T05:09:14.106Z,10.60
2019-04-27T05:11:45.174Z,10.54
2019-04-27T05:14:16.147Z,10.85
2019-04-27T05:16:48.800Z,10.82
2019-04-27T05:19:20.068Z,11.03
2019-04-27T05:21:51.595Z,11.14
2019-04-27T05:24:22.857Z,11.27
2019-04-27T05:26:54.084Z,11.36
2019-04-27T05:29:25.346Z,11.28
2019-04-27T05:31:56.704Z,11.28
2019-04-27T05:34:29.273Z,11.05
2019-04-27T05:37:01.116Z,11.45
2019-04-27T05:39:33.040Z,11.44
2019-04-27T05:42:04.099Z,11.48
2019-04-27T05:45:02.151Z,11.58
2019-04-27T05:47:43.453Z,11.39
2019-04-27T05:50:20.040Z,11.55
2019-04-27T05:53:09.824Z,11.72
2019-04-27T05:55:41.321Z,11.76
2019-04-27T05:58:12.898Z,11.76
2019-04-27T06:00:44.413Z,11.49
2019-04-27T06:03:15.685Z,11.75
2019-04-27T06:05:46.947Z,11.68
2019-04-27T06:08:18.763Z,11.71
2019-04-27T06:10:50.685Z,11.67
2019-04-27T06:13:22.144Z,11.90
2019-04-27T06:15:53.104Z,12.19
2019-04-27T06:18:24.409Z,11.84
2019-04-27T06:20:56.043Z,11.98
2019-04-27T06:23:28.903Z,12.10
2019-04-27T06:26:01.808Z,12.12
2019-04-27T06:28:33.053Z,12.24
2019-04-27T06:31:04.398Z,12.29
2019-04-27T06:33:35.488Z,12.40
2019-04-27T06:36:06.629Z,12.28
2019-04-27T06:38:39.374Z,12.32
2019-04-27T06:41:10.861Z,12.35
2019-04-27T06:43:41.854Z,12.47
2019-04-27T06:46:13.531Z,12.51
2019-04-27T06:48:45.376Z,12.67
2019-04-27T06:51:16.341Z,12.81
2019-04-27T06:53:47.396Z,13.09
2019-04-27T06:56:18.581Z,13.12
2019-04-27T06:58:50.175Z,13.35
2019-04-27T07:01:21.579Z,13.41
2019-04-27T07:03:52.699Z,13.60
2019-04-27T07:06:23.851Z,13.68
2019-04-27T07:08:55.278Z,13.47
2019-04-27T07:11:26.424Z,13.81
2019-04-27T07:13:59.402Z,13.96
2019-04-27T07:16:30.585Z,13.99
2019-04-27T07:19:02.562Z,14.29
2019-04-27T07:21:33.959Z,14.03
2019-04-27T07:24:05.328Z,14.60
2019-04-27T07:26:36.300Z,14.64
2019-04-27T07:29:09.365Z,14.51
2019-04-27T07:31:40.415Z,14.36
2019-04-27T07:34:11.431Z,14.89
2019-04-27T07:36:43.306Z,15.49
2019-04-27T07:39:14.590Z,15.03
2019-04-27T07:41:45.671Z,15.33
2019-04-27T07:44:34.378Z,16.01
2019-04-27T07:47:19.552Z,15.65
2019-04-27T07:49:50.661Z,15.52
2019-04-27T07:52:21.814Z,15.82
2019-04-27T07:54:53.210Z,15.44
2019-04-27T07:57:24.241Z,15.96
2019-04-27T07:59:55.291Z,16.04
2019-04-27T08:02:26.230Z,16.23
2019-04-27T08:04:57.230Z,16.45
2019-04-27T08:07:29.151Z,16.40
2019-04-27T08:10:01.649Z,16.62
2019-04-27T08:12:32.817Z,16.71
2019-04-27T08:15:04.633Z,16.90
2019-04-27T08:17:36.700Z,17.03
2019-04-27T08:20:09.294Z,16.59
2019-04-27T08:22:40.284Z,16.99
2019-04-27T08:25:11.635Z,17.01
2019-04-27T08:28:10.352Z,17.62
2019-04-27T08:31:03.152Z,17.21
2019-04-27T08:33:34.417Z,18.19
2019-04-27T08:36:05.641Z,18.21
2019-04-27T08:38:36.674Z,17.88
2019-04-27T08:41:09.009Z,17.81
2019-04-27T08:43:40.443Z,18.42
2019-04-27T08:46:11.411Z,18.76
2019-04-27T08:48:43.538Z,18.47
2019-04-27T08:51:14.837Z,17.92
2019-04-27T08:53:45.862Z,18.49
2019-04-27T08:56:16.842Z,18.56
2019-04-27T08:58:49.536Z,18.20
2019-04-27T09:01:21.839Z,17.92
2019-04-27T09:03:52.847Z,18.45
2019-04-27T09:06:23.799Z,18.36
2019-04-27T09:09:01.193Z,18.87
2019-04-27T09:11:50.785Z,18.75
2019-04-27T09:14:41.877Z,19.28
2019-04-27T09:17:19.350Z,18.74
2019-04-27T09:20:12.651Z,19.20
2019-04-27T09:22:44.012Z,19.46
2019-04-27T09:25:15.080Z,19.25
2019-04-27T09:27:46.424Z,19.04
2019-04-27T09:30:19.067Z,19.55
2019-04-27T09:32:51.202Z,19.67
2019-04-27T09:35:22.293Z,19.65
2019-04-27T09:37:53.242Z,19.32
2019-04-27T09:40:24.305Z,19.45
2019-04-27T09:42:57.274Z,19.18
2019-04-27T09:45:28.260Z,19.57
2019-04-27T09:48:00.227Z,19.45
2019-04-27T09:50:31.319Z,19.30
2019-04-27T09:53:02.928Z,20.14
2019-04-27T09:55:33.891Z,19.47
2019-04-27T09:58:05.759Z,19.36
2019-04-27T10:00:38.016Z,19.52
2019-04-27T10:03:09.002Z,20.09
2019-04-27T10:05:39.965Z,20.25
2019-04-27T10:08:11.451Z,20.04
2019-04-27T10:10:42.661Z,20.59
2019-04-27T10:13:13.914Z,20.08
2019-04-27T10:15:46.030Z,20.52
2019-04-27T10:18:17.381Z,20.30
2019-04-27T10:20:58.978Z,20.47
2019-04-27T10:23:21.258Z,19.45
2019-04-27T10:25:52.910Z,20.07
2019-04-27T10:28:24.153Z,19.61
2019-04-27T10:30:55.773Z,19.24
2019-04-27T10:33:28.001Z,19.60
2019-04-27T10:35:59.034Z,19.89
2019-04-27T10:38:30.393Z,20.53
2019-04-27T10:41:01.761Z,20.42
2019-04-27T10:43:33.156Z,19.71
2019-04-27T10:46:04.487Z,20.11
2019-04-27T10:48:36.721Z,20.29
2019-04-27T10:51:09.388Z,20.18
2019-04-27T10:53:40.640Z,20.81
2019-04-27T10:56:12.027Z,20.24
2019-04-27T10:58:43.193Z,19.89
2019-04-27T11:01:15.603Z,19.69
2019-04-27T11:04:01.671Z,19.83
2019-04-27T11:06:35.538Z,19.43
2019-04-27T11:09:09.067Z,19.46
2019-04-27T11:11:40.215Z,19.19
2019-04-27T11:14:11.695Z,18.60
2019-04-27T11:16:42.858Z,19.74
2019-04-27T11:19:13.958Z,19.59
2019-04-27T11:21:45.058Z,20.83
2019-04-27T11:24:16.143Z,19.80
2019-04-27T11:26:47.455Z,20.40
2019-04-27T11:29:18.416Z,19.56
2019-04-27T11:31:49.419Z,19.70
2019-04-27T11:34:22.688Z,20.53
2019-04-27T11:37:01.927Z,20.61
2019-04-27T11:39:33.943Z,20.01
2019-04-27T11:42:05.103Z,21.06
2019-04-27T11:44:36.876Z,20.47
2019-04-27T11:47:08.113Z,21.40
2019-04-27T11:49:40.915Z,20.13
2019-04-27T11:52:12.654Z,20.17
2019-04-27T11:54:45.655Z,20.05
2019-04-27T11:57:16.899Z,20.27
2019-04-27T11:59:48.282Z,20.25
2019-04-27T12:02:19.350Z,20.88
2019-04-27T12:04:50.563Z,20.44
2019-04-27T12:07:21.712Z,20.29
2019-04-27T12:09:55.554Z,19.81
2019-04-27T12:12:26.982Z,20.30
2019-04-27T12:14:58.058Z,21.29
2019-04-27T12:17:29.376Z,21.23
2019-04-27T12:20:00.317Z,20.40
2019-04-27T12:22:31.917Z,20.51
2019-04-27T12:25:03.037Z,21.08
2019-04-27T12:27:55.893Z,20.64
2019-04-27T12:30:52.023Z,19.51
2019-04-27T12:33:25.646Z,20.28
2019-04-27T12:35:57.029Z,21.45
2019-04-27T12:38:28.458Z,20.04
2019-04-27T12:40:59.649Z,19.68
2019-04-27T12:43:31.089Z,19.18
2019-04-27T12:46:02.725Z,19.56
2019-04-27T12:48:37.154Z,19.83
2019-04-27T12:51:07.442Z,19.58
2019-04-27T12:53:52.968Z,19.25
2019-04-27T12:56:46.325Z,18.80
2019-04-27T12:59:36.562Z,18.09
2019-04-27T13:02:08.472Z,17.48
2019-04-27T13:04:39.533Z,16.83
2019-04-27T13:07:11.941Z,17.18
2019-04-27T13:09:43.345Z,17.29
2019-04-27T13:12:14.979Z,16.75
2019-04-27T13:14:46.504Z,16.07
2019-04-27T13:17:17.730Z,16.46
2019-04-27T13:19:49.147Z,16.55
2019-04-27T13:22:20.170Z,16.39
2019-04-27T13:24:51.808Z,16.48
2019-04-27T13:27:22.805Z,17.03
2019-04-27T13:29:53.789Z,17.09
2019-04-27T13:32:26.491Z,16.95
2019-04-27T13:34:57.812Z,17.05
2019-04-27T13:37:55.963Z,17.28
2019-04-27T13:40:27.378Z,16.97
2019-04-27T13:43:09.387Z,16.88
2019-04-27T13:46:05.443Z,16.90
2019-04-27T13:48:55.966Z,17.13
2019-04-27T13:51:48.915Z,16.96
2019-04-27T13:54:26.121Z,16.96
2019-04-27T13:56:52.907Z,16.64
2019-04-27T13:59:23.960Z,16.75
2019-04-27T14:01:55.025Z,16.74
2019-04-27T14:04:26.372Z,16.68
2019-04-27T14:06:58.999Z,16.72
2019-04-27T14:09:31.056Z,16.63
2019-04-27T14:12:18.758Z,16.19
2019-04-27T14:14:51.869Z,16.32
2019-04-27T14:17:23.330Z,16.25
2019-04-27T14:19:54.611Z,15.63
2019-04-27T14:22:25.786Z,15.58
2019-04-27T14:24:58.380Z,15.56
2019-04-27T14:27:36.751Z,15.69
2019-04-27T14:30:09.124Z,15.58
2019-04-27T14:32:42.283Z,15.61
2019-04-27T14:35:12.921Z,15.42
2019-04-27T14:37:47.448Z,15.41
2019-04-27T14:40:18.549Z,15.34
2019-04-27T14:42:50.532Z,15.18
2019-04-27T14:45:22.483Z,15.11
2019-04-27T14:47:53.574Z,15.21
2019-04-27T14:50:24.963Z,14.91
2019-04-27T14:52:59.039Z,14.88
2019-04-27T14:55:30.487Z,15.13
2019-04-27T14:58:01.980Z,15.14
2019-04-27T15:00:33.433Z,14.99
2019-04-27T15:03:04.473Z,14.83
2019-04-27T15:05:35.833Z,14.83
2019-04-27T15:08:09.754Z,14.77
2019-04-27T15:10:40.419Z,14.57
2019-04-27T15:13:11.896Z,14.31
2019-04-27T15:15:43.370Z,14.09
2019-04-27T15:18:14.990Z,13.75
2019-04-27T15:20:46.756Z,14.04
2019-04-27T15:23:17.793Z,13.99
2019-04-27T15:25:50.001Z,13.98
2019-04-27T15:28:25.512Z,14.14
2019-04-27T15:31:25.362Z,13.91
2019-04-27T15:34:27.497Z,14.09
2019-04-27T15:37:15.747Z,14.13
2019-04-27T15:40:10.110Z,13.90
2019-04-27T15:42:52.919Z,13.91
2019-04-27T15:45:24.441Z,13.82
2019-04-27T15:47:55.954Z,13.45
2019-04-27T15:50:28.507Z,13.66
2019-04-27T15:53:02.887Z,13.40
2019-04-27T15:55:36.989Z,13.11
2019-04-27T15:58:05.557Z,12.96
2019-04-27T16:00:38.308Z,12.89
2019-04-27T16:03:09.898Z,12.85
2019-04-27T16:05:41.007Z,12.85
2019-04-27T16:08:15.276Z,12.89
2019-04-27T16:10:45.665Z,13.14
2019-04-27T16:13:18.857Z,13.24
2019-04-27T16:15:54.203Z,13.24
2019-04-27T16:18:24.577Z,13.09
2019-04-27T16:20:56.125Z,13.38
2019-04-27T16:23:28.380Z,13.37
2019-04-27T16:26:00.641Z,13.33
2019-04-27T16:28:32.666Z,13.37
2019-04-27T16:31:03.769Z,13.24
2019-04-27T16:33:34.909Z,13.18
2019-04-27T16:36:07.251Z,13.00
2019-04-27T16:38:48.398Z,13.12
2019-04-27T16:41:19.359Z,13.57
2019-04-27T16:43:50.733Z,13.43
2019-04-27T16:46:21.978Z,13.36
2019-04-27T16:48:53.815Z,13.28
2019-04-27T16:51:25.573Z,13.37
2019-04-27T16:53:58.431Z,13.05
2019-04-27T16:56:29.498Z,12.10
2019-04-27T16:59:11.405Z,11.43
2019-04-27T17:01:34.952Z,11.52
2019-04-27T17:04:06.398Z,10.88
2019-04-27T17:06:45.669Z,10.59
2019-04-27T17:09:11.992Z,10.80
2019-04-27T17:11:50.006Z,10.30
2019-04-27T17:14:26.545Z,10.15
2019-04-27T17:17:21.270Z,10.24
2019-04-27T17:19:55.242Z,9.92
2019-04-27T17:22:26.540Z,9.68
2019-04-27T17:24:58.194Z,9.83
2019-04-27T17:27:38.224Z,9.81
2019-04-27T17:30:09.794Z,9.88
2019-04-27T17:32:51.030Z,9.94
2019-04-27T17:35:22.210Z,10.08
2019-04-27T17:37:54.531Z,10.44
2019-04-27T17:40:29.995Z,10.41
2019-04-27T17:42:59.748Z,10.25
2019-04-27T17:45:36.374Z,10.32
2019-04-27T17:48:07.439Z,10.11
2019-04-27T17:50:38.701Z,9.86
2019-04-27T17:53:10.018Z,10.01
2019-04-27T17:55:41.452Z,10.27
2019-04-27T17:58:12.613Z,10.06
2019-04-27T18:00:44.747Z,10.24
2019-04-27T18:03:17.543Z,10.15
2019-04-27T18:05:51.857Z,10.48
2019-04-27T18:08:25.085Z,10.17
2019-04-27T18:11:00.655Z,10.35
2019-04-27T18:13:28.869Z,10.55
2019-04-27T18:15:59.891Z,10.52
2019-04-27T18:18:49.209Z,10.37
2019-04-27T18:21:25.058Z,10.05
2019-04-27T18:24:01.551Z,9.76
2019-04-27T18:26:49.474Z,9.68
2019-04-27T18:29:14.537Z,9.99
2019-04-27T18:31:46.372Z,9.66
2019-04-27T18:34:19.054Z,10.26
2019-04-27T18:36:50.138Z,9.77
2019-04-27T18:39:21.083Z,9.88
2019-04-27T18:41:54.332Z,10.15
2019-04-27T18:44:30.535Z,10.07
2019-04-27T18:47:02.350Z,10.16
2019-04-27T18:49:50.977Z,9.94
2019-04-27T18:52:47.521Z,10.36
2019-04-27T18:55:16.887Z,10.12
2019-04-27T18:57:51.085Z,10.42
2019-04-27T19:00:21.803Z,10.12
2019-04-27T19:02:53.071Z,10.24
2019-04-27T19:05:37.324Z,10.09
2019-04-27T19:07:57.339Z,10.13
2019-04-27T19:10:29.016Z,10.19
2019-04-27T19:13:00.330Z,10.28
2019-04-27T19:15:31.455Z,10.15
2019-04-27T19:18:02.813Z,9.98
2019-04-27T19:20:35.087Z,10.12
2019-04-27T19:23:06.107Z,10.21
2019-04-27T19:25:50.055Z,10.19
2019-04-27T19:28:48.142Z,10.22
2019-04-27T19:31:24.551Z,10.24
2019-04-27T19:33:55.729Z,10.16
2019-04-27T19:36:30.238Z,10.02
2019-04-27T19:39:01.100Z,10.29
2019-04-27T19:41:33.668Z,9.89
2019-04-27T19:44:04.742Z,9.96
2019-04-27T19:46:35.830Z,10.01
2019-04-27T19:49:08.760Z,10.09
2019-04-27T19:51:39.903Z,10.04
2019-04-27T19:54:10.914Z,9.86
2019-04-27T19:56:42.132Z,10.10
2019-04-27T19:59:21.164Z,9.93
2019-04-27T20:01:53.802Z,10.25
2019-04-27T20:04:33.500Z,10.26
2019-04-27T20:07:04.559Z,10.19
2019-04-27T20:09:58.341Z,10.22
2019-04-27T20:12:31.189Z,10.44
2019-04-27T20:15:02.495Z,10.31
2019-04-27T20:17:34.750Z,10.20
2019-04-27T20:20:07.109Z,10.43
2019-04-27T20:22:38.103Z,10.41
2019-04-27T20:25:11.235Z,10.50
2019-04-27T20:27:49.545Z,10.52
2019-04-27T20:30:20.927Z,10.39
2019-04-27T20:32:52.047Z,10.41
2019-04-27T20:35:23.058Z,10.72
2019-04-27T20:37:54.366Z,10.62
2019-04-27T20:40:25.361Z,10.66
2019-04-27T20:42:56.926Z,10.50
2019-04-27T20:45:28.516Z,10.39
2019-04-27T20:48:01.119Z,10.53
2019-04-27T20:50:32.975Z,10.22
2019-04-27T20:53:07.606Z,10.19
2019-04-27T20:55:38.545Z,10.24
2019-04-27T20:58:11.192Z,10.20
2019-04-27T21:00:42.271Z,10.62
2019-04-27T21:03:33.652Z,10.48
2019-04-27T21:06:24.886Z,10.37
2019-04-27T21:08:55.863Z,10.76
2019-04-27T21:11:42.594Z,10.09
2019-04-27T21:14:13.603Z,10.36
2019-04-27T21:16:44.757Z,10.34
2019-04-27T21:19:16.161Z,10.20
2019-04-27T21:21:47.459Z,10.30
2019-04-27T21:24:18.514Z,10.31
2019-04-27T21:26:51.258Z,10.24
2019-04-27T21:29:22.456Z,9.95
2019-04-27T21:31:53.791Z,10.16
2019-04-27T21:34:25.452Z,10.31
2019-04-27T21:36:56.873Z,10.01
2019-04-27T21:39:27.871Z,10.01
2019-04-27T21:41:58.851Z,10.19
2019-04-27T21:44:31.807Z,10.39
2019-04-27T21:47:02.932Z,9.95
2019-04-27T21:49:34.230Z,10.15
2019-04-27T21:52:14.466Z,10.04
2019-04-27T21:54:44.743Z,9.77
2019-04-27T21:57:15.782Z,9.87
2019-04-27T21:59:46.996Z,9.85
2019-04-27T22:02:19.624Z,10.16
2019-04-27T22:04:52.380Z,9.88
2019-04-27T22:07:23.385Z,9.65
2019-04-27T22:09:54.399Z,9.84
2019-04-27T22:12:25.687Z,9.93
2019-04-27T22:14:56.976Z,9.97
2019-04-27T22:17:28.049Z,9.95
2019-04-27T22:20:01.466Z,10.12
2019-04-27T22:22:41.410Z,9.74
2019-04-27T22:25:12.445Z,9.83
2019-04-27T22:27:43.441Z,9.63
2019-04-27T22:30:14.447Z,9.62
2019-04-27T22:32:45.700Z,9.85
2019-04-27T22:35:16.818Z,9.83
2019-04-27T22:37:48.756Z,9.62
2019-04-27T22:40:42.009Z,9.88
2019-04-27T22:43:38.451Z,9.88
2019-04-27T22:46:11.812Z,9.53
2019-04-27T22:48:42.847Z,9.81
2019-04-27T22:51:13.779Z,9.81
2019-04-27T22:53:46.066Z,9.77
2019-04-27T22:56:18.993Z,9.57
2019-04-27T22:59:00.610Z,9.83
2019-04-27T23:01:38.766Z,9.59
2019-04-27T23:04:11.905Z,9.73
2019-04-27T23:06:42.850Z,9.92
2019-04-27T23:09:14.356Z,9.81
2019-04-27T23:11:45.317Z,10.04
2019-04-27T23:14:16.984Z,9.75
2019-04-27T23:16:50.004Z,10.03
2019-04-27T23:19:21.089Z,9.85
2019-04-27T23:21:53.259Z,9.82
2019-04-27T23:24:24.519Z,9.80
2019-04-27T23:26:55.782Z,9.74
2019-04-27T23:29:26.748Z,9.50
2019-04-27T23:32:12.313Z,9.43
2019-04-27T23:34:43.262Z,9.57
2019-04-27T23:37:14.637Z,9.64
2019-04-27T23:39:46.577Z,9.62
2019-04-27T23:42:17.929Z,9.61
2019-04-27T23:44:49.118Z,9.35
2019-04-27T23:47:20.542Z,9.38
2019-04-27T23:49:51.534Z,9.58
2019-04-27T23:52:42.475Z,9.52
2019-04-27T23:55:13.448Z,9.35
2019-04-27T23:57:44.779Z,9.58
